Terminal Aerodrome Forecast
Issued by NWS

Home | Current Version | Previous Version | Text Only | Print | Product List | Glossary On
Versions: 1 2 3 4 5 6 7 8 9 10 11 12 13 14 15 16 17 18 19 20 21 22 23 24 25 26 27 28 29 30 31 32 33 34 35 36 37 38
000
FTUS41 KBOX 220832 AAA
TAFACK
TAF AMD
KACK 220832Z 2209/2306 03032G45KT 5SM BR VCSH OVC006
     FM221400 03027G36KT 1 1/2SM SHRA BR OVC005
     FM221600 03030G45KT 4SM BR OVC006
     FM222200 03025G34KT 3SM -SHRA BR OVC008
     FM230000 03024G33KT 1 1/2SM -SHRA BR OVC010
     FM230300 04021G30KT 2SM BR VCSH OVC003=

USA.gov is the U.S. government's official web portal to all federal, state and local government web resources and services.